Time;durP1;ratioP1;P1;durP2;ratioP2;P2;SDS_P1;SDS_P2;PMS_P1;PMS_P2;Temp;Humidity;BMP_temperature;BMP_pressure;BME280_temperature;BME280_humidity;BME280_pressure;Samples;Min_cycle;Max_cycle;Signal;HPM_P1;HPM_P2
2024/03/01 00:00:49;;;;;;;40.77;26.77;;;6.20;69.20;;;;;;5075597;28;20265;-63
2024/03/01 00:03:15;;;;;;;41.43;28.20;;;6.20;70.10;;;;;;5075972;28;20301;-63
2024/03/01 00:05:42;;;;;;;43.00;28.17;;;6.10;70.20;;;;;;5074683;28;20258;-63
2024/03/01 00:08:08;;;;;;;43.50;28.80;;;6.20;69.40;;;;;;5074369;28;20205;-63
2024/03/01 00:10:35;;;;;;;40.83;26.93;;;6.20;69.20;;;;;;5069964;28;20216;-64
2024/03/01 00:13:02;;;;;;;43.97;28.33;;;6.00;69.90;;;;;;5072023;28;20717;-64
2024/03/01 00:15:29;;;;;;;40.03;26.53;;;6.00;70.30;;;;;;5069393;28;20236;-64
2024/03/01 00:17:56;;;;;;;38.07;26.83;;;6.00;70.20;;;;;;5067948;28;20250;-64
2024/03/01 00:20:22;;;;;;;37.03;26.60;;;6.00;70.30;;;;;;5068671;28;20208;-64
2024/03/01 00:22:50;;;;;;;38.40;26.13;;;6.00;70.10;;;;;;5076643;28;20240;-63
2024/03/01 00:25:18;;;;;;;38.43;27.30;;;6.00;69.50;;;;;;5075631;28;20219;-64
2024/03/01 00:27:45;;;;;;;34.70;26.63;;;6.00;69.70;;;;;;5074463;28;20233;-64
2024/03/01 00:30:12;;;;;;;40.20;26.87;;;6.00;70.40;;;;;;5071589;28;20219;-64
2024/03/01 00:32:38;;;;;;;38.53;25.73;;;5.90;69.20;;;;;;5065051;28;20235;-64
2024/03/01 00:35:05;;;;;;;38.30;26.03;;;5.90;69.30;;;;;;5074907;28;20231;-63
2024/03/01 00:37:31;;;;;;;39.13;27.77;;;5.80;69.40;;;;;;5074775;28;20203;-64
2024/03/01 00:39:58;;;;;;;41.07;27.43;;;5.80;69.50;;;;;;5072988;28;20215;-64
2024/03/01 00:42:24;;;;;;;36.30;26.50;;;5.80;69.80;;;;;;5074244;28;20228;-63
2024/03/01 00:44:51;;;;;;;45.13;27.40;;;5.80;69.50;;;;;;5071371;28;20212;-63
2024/03/01 00:47:17;;;;;;;37.90;26.20;;;5.70;69.10;;;;;;5073281;28;20211;-63
2024/03/01 00:49:44;;;;;;;39.83;26.30;;;5.70;69.60;;;;;;5074552;28;20207;-63
2024/03/01 00:52:11;;;;;;;36.57;25.80;;;5.70;69.80;;;;;;5073834;28;20318;-64
2024/03/01 00:54:38;;;;;;;36.77;27.13;;;5.60;69.40;;;;;;5075128;28;20226;-64
2024/03/01 00:57:04;;;;;;;38.20;26.53;;;5.60;69.70;;;;;;5075218;28;20227;-63
2024/03/01 00:59:31;;;;;;;38.37;25.97;;;5.70;69.40;;;;;;5063233;28;20277;-63
2024/03/01 01:01:57;;;;;;;39.03;26.53;;;5.80;69.10;;;;;;5075165;28;20285;-64
2024/03/01 01:04:24;;;;;;;41.43;27.33;;;5.70;69.10;;;;;;5068127;28;20207;-64
2024/03/01 01:06:51;;;;;;;40.43;27.97;;;5.60;69.40;;;;;;5074820;28;20345;-64
2024/03/01 01:09:17;;;;;;;40.80;27.83;;;5.60;70.00;;;;;;5072041;28;20200;-63
2024/03/01 01:11:44;;;;;;;37.03;26.07;;;5.60;69.70;;;;;;5075106;28;20281;-63
2024/03/01 01:14:10;;;;;;;36.23;25.40;;;5.70;69.50;;;;;;5066062;28;20203;-63
2024/03/01 01:16:37;;;;;;;39.20;26.90;;;5.80;68.90;;;;;;5069339;28;20219;-63
2024/03/01 01:19:04;;;;;;;40.07;25.90;;;5.80;68.90;;;;;;5073036;28;20211;-62
2024/03/01 01:21:31;;;;;;;34.33;25.60;;;5.80;68.80;;;;;;5072434;28;20220;-63
2024/03/01 01:23:58;;;;;;;36.40;25.37;;;5.80;68.90;;;;;;5074510;28;20295;-63
2024/03/01 01:26:24;;;;;;;37.30;27.93;;;5.80;68.90;;;;;;5073033;28;20216;-63
2024/03/01 01:28:51;;;;;;;37.43;25.37;;;5.70;68.80;;;;;;5068440;28;20204;-64
2024/03/01 01:31:18;;;;;;;34.97;25.53;;;5.70;69.00;;;;;;5072083;28;20228;-63
2024/03/01 01:33:45;;;;;;;37.57;26.03;;;5.70;68.90;;;;;;5073280;28;20211;-63
2024/03/01 01:36:11;;;;;;;40.00;26.07;;;5.60;69.20;;;;;;5073957;28;20277;-63
2024/03/01 01:38:38;;;;;;;35.57;26.27;;;5.60;69.60;;;;;;5072924;28;20212;-63
2024/03/01 01:41:04;;;;;;;36.87;25.67;;;5.70;69.30;;;;;;5072581;28;20278;-64
2024/03/01 01:43:32;;;;;;;40.93;27.77;;;5.80;69.00;;;;;;5073258;28;20628;-63
2024/03/01 01:45:58;;;;;;;38.60;26.03;;;5.70;68.80;;;;;;5073539;28;20207;-63
2024/03/01 01:48:25;;;;;;;40.13;25.50;;;5.70;69.70;;;;;;5073206;28;20592;-63
2024/03/01 01:50:52;;;;;;;36.00;26.27;;;5.80;69.00;;;;;;5073730;28;20234;-64
2024/03/01 01:53:18;;;;;;;40.33;27.43;;;5.90;68.90;;;;;;5067049;28;20213;-63
2024/03/01 01:55:45;;;;;;;36.53;25.73;;;6.00;69.00;;;;;;5073293;28;20597;-62
2024/03/01 01:58:11;;;;;;;40.03;26.20;;;6.00;68.90;;;;;;5066576;28;20242;-63
2024/03/01 02:00:38;;;;;;;37.13;28.20;;;5.90;69.60;;;;;;5074924;28;20215;-64
2024/03/01 02:03:04;;;;;;;34.63;23.33;;;5.90;68.90;;;;;;5071514;28;20224;-63
2024/03/01 02:05:31;;;;;;;39.10;26.90;;;5.90;69.30;;;;;;5074604;28;20207;-63
2024/03/01 02:07:59;;;;;;;37.77;27.07;;;5.90;70.30;;;;;;5073682;28;20208;-63
2024/03/01 02:10:25;;;;;;;38.83;26.33;;;5.90;70.00;;;;;;5073465;28;20634;-63
2024/03/01 02:12:52;;;;;;;44.37;29.20;;;5.90;70.40;;;;;;5062527;28;20235;-63
2024/03/01 02:15:18;;;;;;;39.13;27.40;;;6.00;70.40;;;;;;5073456;28;20231;-63
2024/03/01 02:17:45;;;;;;;36.73;26.47;;;6.00;70.50;;;;;;5074495;28;20284;-63
2024/03/01 02:20:12;;;;;;;35.60;25.80;;;6.10;69.40;;;;;;5073546;28;20208;-63
2024/03/01 02:22:38;;;;;;;40.70;25.80;;;6.20;69.10;;;;;;5073678;28;20232;-63
2024/03/01 02:25:05;;;;;;;41.17;26.87;;;6.20;68.70;;;;;;5073890;28;20598;-63
2024/03/01 02:27:32;;;;;;;39.80;28.53;;;6.00;69.20;;;;;;5067411;28;20209;-63
2024/03/01 02:29:58;;;;;;;38.63;28.03;;;6.00;69.80;;;;;;5073521;28;20203;-63
2024/03/01 02:32:25;;;;;;;37.67;25.77;;;6.10;69.90;;;;;;5074461;28;20235;-63
2024/03/01 02:34:52;;;;;;;38.20;26.57;;;6.10;69.50;;;;;;5074458;28;20235;-63
2024/03/01 02:37:19;;;;;;;33.93;26.07;;;6.00;69.00;;;;;;5070542;28;20237;-64
2024/03/01 02:39:45;;;;;;;40.67;25.83;;;6.00;69.00;;;;;;5053373;28;20573;-63
2024/03/01 02:42:12;;;;;;;36.50;25.13;;;6.00;68.90;;;;;;5070141;28;20228;-64
2024/03/01 02:44:38;;;;;;;36.43;26.43;;;6.00;68.90;;;;;;5073546;28;20636;-63
2024/03/01 02:47:05;;;;;;;34.97;25.57;;;5.90;68.90;;;;;;5073794;28;20682;-63
2024/03/01 02:49:32;;;;;;;36.97;26.20;;;5.90;68.10;;;;;;5074094;28;20258;-63
2024/03/01 02:51:58;;;;;;;37.13;25.67;;;5.90;68.90;;;;;;5071927;28;20680;-63
2024/03/01 02:54:25;;;;;;;36.20;24.30;;;5.90;67.20;;;;;;5073211;28;20207;-64
2024/03/01 02:56:51;;;;;;;35.27;23.97;;;5.80;66.60;;;;;;5072582;28;20357;-63
2024/03/01 02:59:18;;;;;;;35.70;25.07;;;5.60;66.90;;;;;;5073638;28;20212;-62
2024/03/01 03:01:44;;;;;;;32.67;23.07;;;5.50;67.40;;;;;;5072967;28;20231;-63
2024/03/01 03:04:12;;;;;;;32.93;23.20;;;5.40;67.20;;;;;;5072446;28;20256;-63
2024/03/01 03:06:38;;;;;;;34.03;22.43;;;5.40;67.10;;;;;;5069708;28;20213;-63
2024/03/01 03:09:09;;;;;;;31.80;22.90;;;5.40;65.50;;;;;;5071381;28;20299;-62
2024/03/01 03:11:35;;;;;;;34.90;24.23;;;5.20;65.30;;;;;;5071229;28;20276;-63
2024/03/01 03:14:03;;;;;;;34.50;23.57;;;5.10;66.10;;;;;;5057434;28;20213;-64
2024/03/01 03:16:29;;;;;;;32.33;23.23;;;5.00;65.80;;;;;;5071742;28;20227;-63
2024/03/01 03:18:56;;;;;;;35.07;22.90;;;5.10;66.00;;;;;;5069737;28;20200;-63
2024/03/01 03:21:23;;;;;;;34.43;23.03;;;5.20;65.90;;;;;;5064220;28;20227;-64
2024/03/01 03:23:49;;;;;;;37.40;24.20;;;5.20;66.00;;;;;;5067920;28;20231;-64
2024/03/01 03:26:16;;;;;;;32.83;22.97;;;5.00;66.20;;;;;;5068619;28;20591;-63
2024/03/01 03:28:42;;;;;;;33.47;24.57;;;4.90;67.20;;;;;;5072438;28;20203;-64
2024/03/01 03:33:53;;;;;;;41.77;24.80;;;4.90;67.50;;;;;;5065427;28;20204;-63
2024/03/01 03:36:20;;;;;;;30.97;23.03;;;4.90;67.40;;;;;;5075207;28;20279;-62
2024/03/01 03:38:46;;;;;;;29.77;22.77;;;4.90;68.00;;;;;;5071680;28;20242;-63
2024/03/01 03:41:13;;;;;;;35.17;23.33;;;4.90;68.00;;;;;;5067025;28;20238;-63
2024/03/01 03:43:39;;;;;;;42.17;22.17;;;4.90;67.60;;;;;;5071217;28;20254;-63
2024/03/01 03:46:06;;;;;;;32.27;22.17;;;4.90;68.00;;;;;;5076595;28;20254;-63
2024/03/01 03:48:32;;;;;;;41.40;23.50;;;4.90;68.90;;;;;;5075726;28;20291;-62
2024/03/01 03:50:59;;;;;;;29.23;21.03;;;4.80;69.00;;;;;;5068648;28;20268;-64
2024/03/01 03:53:25;;;;;;;30.23;21.67;;;4.80;68.70;;;;;;5076091;28;20253;-63
2024/03/01 03:55:52;;;;;;;31.13;22.17;;;4.70;69.40;;;;;;5061388;28;20687;-64
2024/03/01 03:58:19;;;;;;;33.57;23.23;;;4.80;69.60;;;;;;5070242;28;20232;-62
2024/03/01 04:00:45;;;;;;;35.73;23.37;;;4.80;69.40;;;;;;5069674;28;20635;-63
2024/03/01 04:03:12;;;;;;;38.03;23.87;;;4.90;69.30;;;;;;5070016;28;20230;-63
2024/03/01 04:05:38;;;;;;;38.03;25.30;;;4.90;69.10;;;;;;5069225;28;20262;-64
2024/03/01 04:08:05;;;;;;;32.30;23.60;;;4.90;69.60;;;;;;5076396;28;20540;-64
2024/03/01 04:10:33;;;;;;;35.17;23.73;;;5.00;69.50;;;;;;5077580;28;20256;-63
2024/03/01 04:13:00;;;;;;;37.80;22.80;;;5.20;68.90;;;;;;5068379;28;20230;-63
2024/03/01 04:15:26;;;;;;;40.20;24.37;;;5.30;68.70;;;;;;5076775;28;20215;-64
2024/03/01 04:17:53;;;;;;;53.27;24.27;;;5.30;68.70;;;;;;5071260;28;20214;-64
2024/03/01 04:20:19;;;;;;;42.00;24.80;;;5.40;70.00;;;;;;5074215;28;20239;-63
2024/03/01 04:22:46;;;;;;;37.73;24.53;;;5.30;70.70;;;;;;5067069;28;20736;-63
2024/03/01 04:25:12;;;;;;;34.23;24.53;;;5.20;71.10;;;;;;5075623;28;20587;-63
2024/03/01 04:27:39;;;;;;;39.73;24.83;;;5.30;70.80;;;;;;5073543;28;20255;-63
2024/03/01 04:30:08;;;;;;;53.53;25.87;;;5.30;70.30;;;;;;5075358;28;20207;-63
2024/03/01 04:32:35;;;;;;;37.77;24.43;;;5.30;70.00;;;;;;5075716;28;20235;-63
2024/03/01 04:35:01;;;;;;;45.40;26.30;;;5.20;71.00;;;;;;5075066;28;20211;-63
2024/03/01 04:37:28;;;;;;;39.43;24.93;;;5.00;71.90;;;;;;5071771;28;20309;-64
2024/03/01 04:39:55;;;;;;;39.73;26.17;;;5.00;73.00;;;;;;5072044;28;20211;-62
2024/03/01 04:42:21;;;;;;;70.80;27.83;;;4.90;73.60;;;;;;5069359;28;20231;-63
2024/03/01 04:44:48;;;;;;;43.00;26.87;;;4.90;73.90;;;;;;5075558;28;20207;-63
2024/03/01 04:47:14;;;;;;;37.53;25.60;;;5.00;74.30;;;;;;5067549;28;20583;-64
2024/03/01 04:49:43;;;;;;;37.57;24.73;;;5.20;73.10;;;;;;5071938;28;20297;-62
2024/03/01 04:52:09;;;;;;;39.90;25.30;;;5.10;73.00;;;;;;5064949;28;20242;-63
2024/03/01 04:54:36;;;;;;;38.43;24.20;;;5.10;72.70;;;;;;5071007;28;20215;-63
2024/03/01 04:57:06;;;;;;;34.57;24.53;;;5.10;73.50;;;;;;5074695;28;20708;-64
2024/03/01 04:59:33;;;;;;;43.17;25.83;;;5.20;72.80;;;;;;5067238;28;20230;-63
2024/03/01 05:01:59;;;;;;;33.83;25.10;;;5.20;72.80;;;;;;5074538;28;20226;-62
2024/03/01 05:04:26;;;;;;;37.17;24.53;;;5.30;72.80;;;;;;5069972;28;20636;-63
2024/03/01 05:06:52;;;;;;;33.57;24.70;;;5.30;72.00;;;;;;5060427;28;20218;-62
2024/03/01 05:09:19;;;;;;;37.63;24.00;;;5.20;72.90;;;;;;5071559;28;20198;-63
2024/03/01 05:11:45;;;;;;;36.63;24.80;;;5.30;73.00;;;;;;5069081;28;20292;-63
2024/03/01 05:14:12;;;;;;;42.53;26.53;;;5.30;72.90;;;;;;5072567;28;20203;-63
2024/03/01 05:16:38;;;;;;;36.07;25.07;;;5.20;73.20;;;;;;5066377;28;20215;-63
2024/03/01 05:19:05;;;;;;;38.80;25.90;;;5.20;74.10;;;;;;5073341;28;20212;-63
2024/03/01 05:21:31;;;;;;;35.67;23.90;;;5.10;74.50;;;;;;5073585;28;20235;-63
2024/03/01 05:23:58;;;;;;;36.47;26.43;;;5.10;74.30;;;;;;5072992;28;20215;-63
2024/03/01 05:26:25;;;;;;;37.80;24.93;;;5.10;74.80;;;;;;5067700;28;20199;-63
2024/03/01 05:28:52;;;;;;;35.23;25.27;;;5.20;75.00;;;;;;5065930;28;20299;-63
2024/03/01 05:31:19;;;;;;;35.57;26.73;;;5.10;75.30;;;;;;5070194;28;20228;-63
2024/03/01 05:33:46;;;;;;;37.53;26.33;;;5.20;75.50;;;;;;5069527;28;20266;-63
2024/03/01 05:36:12;;;;;;;33.93;24.13;;;5.10;75.50;;;;;;5071280;28;20713;-63
2024/03/01 05:38:40;;;;;;;34.50;25.07;;;5.30;75.10;;;;;;5060640;28;20211;-63
2024/03/01 05:41:07;;;;;;;34.93;24.83;;;5.30;74.10;;;;;;5072995;28;20582;-63
2024/03/01 05:43:33;;;;;;;32.77;24.33;;;5.40;73.60;;;;;;5066644;28;20219;-63
2024/03/01 05:46:04;;;;;;;33.80;24.70;;;5.30;74.00;;;;;;5067730;28;20215;-63
2024/03/01 05:48:31;;;;;;;31.43;23.57;;;5.30;73.70;;;;;;5073515;28;20230;-63
2024/03/01 05:50:58;;;;;;;31.80;23.57;;;5.30;74.00;;;;;;5072799;28;20231;-63
2024/03/01 05:53:26;;;;;;;33.20;23.90;;;5.30;73.50;;;;;;5066812;28;20207;-63
2024/03/01 05:55:52;;;;;;;31.60;24.10;;;5.30;73.20;;;;;;5072880;28;20257;-62
2024/03/01 05:58:25;;;;;;;30.07;22.37;;;5.40;72.90;;;;;;5064031;28;20195;-63
2024/03/01 06:00:54;;;;;;;31.50;22.90;;;5.40;73.00;;;;;;5068667;28;24603;-63
2024/03/01 06:03:22;;;;;;;31.57;22.53;;;5.50;72.50;;;;;;5065742;28;20594;-63
2024/03/01 06:05:49;;;;;;;31.30;23.03;;;5.40;72.50;;;;;;5074405;28;20271;-63
2024/03/01 06:08:15;;;;;;;31.70;22.80;;;5.40;72.60;;;;;;5072858;28;20206;-63
2024/03/01 06:10:42;;;;;;;28.17;21.47;;;5.50;71.80;;;;;;5060481;28;20216;-63
2024/03/01 06:13:09;;;;;;;27.13;21.30;;;5.50;71.70;;;;;;5059259;28;20237;-64
2024/03/01 06:15:35;;;;;;;28.40;20.87;;;5.60;71.00;;;;;;5067994;28;20563;-63
2024/03/01 06:18:02;;;;;;;31.40;21.73;;;5.70;70.50;;;;;;5062904;28;20223;-63
2024/03/01 06:20:30;;;;;;;33.30;21.93;;;5.80;69.80;;;;;;5061944;28;20215;-63
2024/03/01 06:22:56;;;;;;;29.07;21.97;;;5.80;69.70;;;;;;5070891;28;20579;-63
2024/03/01 06:25:23;;;;;;;29.87;21.83;;;5.80;69.70;;;;;;5073350;28;20215;-63
2024/03/01 06:27:49;;;;;;;29.13;19.93;;;5.80;70.50;;;;;;5060951;28;20244;-63
2024/03/01 06:30:16;;;;;;;29.50;21.83;;;5.80;70.00;;;;;;5063863;28;20624;-62
2024/03/01 06:32:43;;;;;;;27.50;20.77;;;6.00;69.00;;;;;;5063294;28;20228;-63
2024/03/01 06:35:09;;;;;;;27.97;20.53;;;6.00;69.00;;;;;;5070728;28;20642;-63
2024/03/01 06:37:36;;;;;;;30.43;22.83;;;6.00;69.20;;;;;;5060395;28;20765;-63
2024/03/01 06:40:05;;;;;;;27.03;20.90;;;5.90;69.10;;;;;;5068498;28;20231;-63
2024/03/01 06:42:31;;;;;;;31.40;22.17;;;6.00;69.00;;;;;;5065275;28;20223;-62
2024/03/01 06:44:58;;;;;;;27.23;20.27;;;5.90;68.90;;;;;;5071245;28;20208;-63
2024/03/01 06:47:24;;;;;;;27.93;21.87;;;6.00;69.30;;;;;;5061860;28;20204;-63
2024/03/01 06:49:51;;;;;;;27.73;21.30;;;5.90;69.10;;;;;;5071717;28;20235;-63
2024/03/01 06:52:17;;;;;;;28.73;20.97;;;5.90;69.60;;;;;;5063732;28;20281;-63
2024/03/01 06:54:44;;;;;;;27.23;20.43;;;6.00;70.40;;;;;;5072969;28;20212;-63
2024/03/01 06:57:10;;;;;;;29.13;20.50;;;5.90;69.80;;;;;;5067300;28;20309;-63
2024/03/01 06:59:37;;;;;;;29.90;20.83;;;6.00;69.00;;;;;;5066409;28;20296;-63
2024/03/01 07:02:03;;;;;;;29.43;21.17;;;6.10;68.60;;;;;;5066779;28;20253;-62
2024/03/01 07:04:30;;;;;;;27.97;20.90;;;6.00;69.00;;;;;;5068836;28;20252;-62
2024/03/01 07:06:58;;;;;;;30.40;20.67;;;6.00;69.00;;;;;;5062912;28;20835;-62
2024/03/01 07:09:24;;;;;;;29.17;21.73;;;5.90;68.90;;;;;;5065390;28;20261;-63
2024/03/01 07:11:51;;;;;;;29.70;21.20;;;5.90;69.60;;;;;;5068794;28;20791;-64
2024/03/01 07:14:17;;;;;;;28.00;21.47;;;6.00;69.20;;;;;;5066614;28;20215;-63
2024/03/01 07:16:44;;;;;;;27.83;20.83;;;6.10;69.10;;;;;;5067949;28;20358;-64
2024/03/01 07:19:11;;;;;;;32.60;21.70;;;6.00;69.00;;;;;;5072172;28;20196;-63
2024/03/01 07:21:37;;;;;;;28.00;20.50;;;6.00;69.40;;;;;;5067327;28;20219;-63
2024/03/01 07:24:04;;;;;;;31.10;20.60;;;5.90;69.20;;;;;;5070511;28;20657;-63
2024/03/01 07:26:30;;;;;;;31.43;21.03;;;5.90;69.80;;;;;;5066899;28;20244;-63
2024/03/01 07:28:57;;;;;;;33.50;21.80;;;5.90;69.60;;;;;;5070415;28;20295;-63
2024/03/01 07:31:23;;;;;;;29.13;20.23;;;6.00;69.00;;;;;;5067668;28;20270;-63
2024/03/01 07:33:50;;;;;;;31.90;21.37;;;6.00;69.10;;;;;;5074234;28;20208;-64
2024/03/01 07:36:16;;;;;;;31.67;22.27;;;6.10;69.10;;;;;;5074951;28;20208;-63
2024/03/01 07:38:43;;;;;;;29.53;21.47;;;6.30;68.40;;;;;;5075978;28;20208;-63
2024/03/01 07:41:10;;;;;;;30.83;22.43;;;6.50;67.50;;;;;;5062174;28;20204;-62
2024/03/01 07:43:36;;;;;;;30.53;21.43;;;6.40;67.50;;;;;;5067712;28;20684;-63
2024/03/01 07:46:03;;;;;;;34.57;22.53;;;6.30;68.00;;;;;;5063048;28;20208;-63
2024/03/01 07:48:30;;;;;;;31.37;21.57;;;6.40;68.50;;;;;;5060498;28;20224;-63
2024/03/01 07:50:56;;;;;;;31.33;21.10;;;6.50;68.10;;;;;;5068835;28;20213;-61
2024/03/01 07:53:23;;;;;;;33.77;22.67;;;6.60;67.60;;;;;;5051509;28;20619;-62
2024/03/01 07:55:49;;;;;;;34.20;21.00;;;6.50;67.70;;;;;;5067254;28;20297;-63
2024/03/01 07:58:17;;;;;;;32.73;21.43;;;6.50;67.80;;;;;;5053564;28;20251;-62
2024/03/01 08:00:43;;;;;;;30.30;21.77;;;6.50;67.80;;;;;;5063699;28;20205;-63
2024/03/01 08:03:10;;;;;;;31.00;21.63;;;6.50;67.90;;;;;;5068263;28;20235;-62
2024/03/01 08:05:36;;;;;;;32.57;22.73;;;6.60;68.10;;;;;;5066130;28;20204;-62
2024/03/01 08:08:03;;;;;;;35.43;23.27;;;6.60;67.90;;;;;;5063800;28;20305;-61
2024/03/01 08:10:29;;;;;;;32.67;21.90;;;6.60;68.40;;;;;;5068737;28;20673;-63
2024/03/01 08:12:56;;;;;;;31.97;22.03;;;6.50;68.80;;;;;;5062804;28;20282;-62
2024/03/01 08:15:23;;;;;;;35.30;22.73;;;6.70;69.40;;;;;;5053270;28;20235;-61
2024/03/01 08:17:50;;;;;;;30.77;22.07;;;6.80;69.00;;;;;;5070162;28;20343;-62
2024/03/01 08:20:16;;;;;;;30.47;22.07;;;6.80;68.60;;;;;;5071080;28;20254;-63
2024/03/01 08:22:42;;;;;;;33.20;22.57;;;6.90;68.00;;;;;;5071252;28;20262;-62
2024/03/01 08:25:09;;;;;;;34.73;24.23;;;6.90;68.10;;;;;;5068188;28;20748;-62
2024/03/01 08:27:36;;;;;;;33.07;22.53;;;6.80;68.20;;;;;;5069817;28;20291;-62
2024/03/01 08:30:02;;;;;;;35.93;22.93;;;6.80;68.20;;;;;;5075002;28;20217;-63
2024/03/01 08:32:29;;;;;;;34.13;22.57;;;6.90;68.30;;;;;;5067769;28;20221;-63
2024/03/01 08:34:56;;;;;;;33.93;23.70;;;6.90;68.60;;;;;;5054690;28;20227;-63
2024/03/01 08:37:22;;;;;;;35.20;23.23;;;7.00;68.50;;;;;;5061190;28;20232;-62
2024/03/01 08:39:49;;;;;;;31.33;23.07;;;7.20;68.00;;;;;;5058796;28;20579;-63
2024/03/01 08:42:15;;;;;;;35.03;24.10;;;7.20;68.00;;;;;;5056654;28;20232;-63
2024/03/01 08:44:41;;;;;;;34.90;22.13;;;7.20;68.10;;;;;;5062241;28;20538;-63
2024/03/01 08:47:07;;;;;;;33.87;24.40;;;7.40;67.40;;;;;;5067477;28;20281;-63
2024/03/01 08:49:34;;;;;;;34.67;22.43;;;7.40;67.40;;;;;;5048266;28;20286;-63
2024/03/01 08:52:01;;;;;;;38.63;23.37;;;7.40;66.90;;;;;;5046812;28;20290;-62
2024/03/01 08:54:28;;;;;;;36.17;23.90;;;7.50;67.40;;;;;;5050291;28;20212;-63
2024/03/01 08:56:54;;;;;;;37.23;23.57;;;7.50;67.40;;;;;;5018368;28;20226;-63
2024/03/01 08:59:21;;;;;;;33.83;23.50;;;7.60;67.10;;;;;;5027633;28;20263;-62
2024/03/01 09:01:48;;;;;;;37.50;24.50;;;7.70;66.90;;;;;;5047551;28;20724;-63
2024/03/01 09:04:15;;;;;;;37.73;23.63;;;7.70;66.60;;;;;;5043715;28;20205;-61
2024/03/01 09:06:41;;;;;;;39.57;24.23;;;7.80;66.60;;;;;;5045636;28;20634;-62
2024/03/01 09:09:08;;;;;;;35.43;23.70;;;7.80;66.60;;;;;;5049495;28;20289;-62
2024/03/01 09:11:34;;;;;;;35.63;23.93;;;7.80;66.80;;;;;;5037039;28;20226;-63
2024/03/01 09:14:01;;;;;;;42.33;24.23;;;7.90;66.70;;;;;;5041709;28;20210;-63
2024/03/01 09:16:27;;;;;;;35.37;23.77;;;8.10;66.10;;;;;;5048794;28;20914;-60
2024/03/01 09:18:55;;;;;;;36.30;25.47;;;8.10;65.50;;;;;;5051570;28;20257;-63
2024/03/01 09:21:20;;;;;;;36.73;23.77;;;8.20;65.40;;;;;;5049469;28;20230;-64
2024/03/01 09:23:47;;;;;;;34.40;24.30;;;8.20;65.50;;;;;;5047875;28;20228;-64
2024/03/01 09:26:13;;;;;;;34.77;23.33;;;8.30;65.30;;;;;;5046170;28;20201;-62
2024/03/01 09:28:40;;;;;;;38.23;24.10;;;8.20;65.50;;;;;;5041571;28;20207;-63
2024/03/01 09:31:07;;;;;;;36.73;24.50;;;8.30;65.30;;;;;;5041421;28;20654;-63
2024/03/01 09:33:33;;;;;;;37.37;25.57;;;8.40;65.00;;;;;;5039606;28;20234;-64
2024/03/01 09:36:00;;;;;;;37.17;25.13;;;8.40;64.80;;;;;;5040826;28;20207;-64
2024/03/01 09:38:26;;;;;;;36.97;24.07;;;8.40;65.10;;;;;;5047402;28;20268;-63
2024/03/01 09:40:53;;;;;;;41.17;24.13;;;8.50;65.20;;;;;;5052190;28;20265;-64
2024/03/01 09:43:20;;;;;;;36.10;23.83;;;8.60;65.60;;;;;;5051494;28;20687;-64
2024/03/01 09:45:47;;;;;;;35.30;24.33;;;8.60;64.50;;;;;;5053411;28;20234;-64
2024/03/01 09:48:14;;;;;;;37.07;24.60;;;8.60;64.10;;;;;;5049043;28;20645;-64
2024/03/01 09:50:40;;;;;;;37.03;23.37;;;8.70;64.20;;;;;;5043696;28;20211;-64
2024/03/01 09:53:07;;;;;;;38.90;24.77;;;8.70;63.80;;;;;;5049918;28;20249;-63
2024/03/01 09:55:34;;;;;;;35.60;24.10;;;8.80;63.50;;;;;;5053086;28;20211;-63
2024/03/01 09:58:00;;;;;;;36.53;23.77;;;9.00;62.80;;;;;;5051409;28;20222;-63
2024/03/01 10:00:27;;;;;;;36.87;25.17;;;8.90;62.90;;;;;;5048210;28;20674;-64
2024/03/01 10:02:54;;;;;;;37.70;24.63;;;9.00;62.50;;;;;;5049066;28;20230;-64
2024/03/01 10:05:22;;;;;;;37.80;25.13;;;9.00;62.50;;;;;;5044371;28;20231;-62
2024/03/01 10:07:49;;;;;;;40.40;26.43;;;9.00;62.50;;;;;;5053261;28;20253;-64
2024/03/01 10:10:15;;;;;;;36.67;26.17;;;8.90;62.50;;;;;;5043911;28;20216;-64
2024/03/01 10:12:42;;;;;;;40.17;25.50;;;9.00;62.60;;;;;;5049426;28;20295;-64
2024/03/01 10:15:08;;;;;;;46.93;23.23;;;9.00;62.60;;;;;;5044241;28;20260;-64
2024/03/01 10:17:35;;;;;;;38.20;24.20;;;9.10;62.80;;;;;;5053035;28;20265;-63
2024/03/01 10:20:02;;;;;;;37.57;24.80;;;9.10;62.80;;;;;;5054490;28;20206;-64
2024/03/01 10:22:29;;;;;;;38.53;24.67;;;9.10;62.60;;;;;;5053638;28;20285;-63
2024/03/01 10:24:55;;;;;;;37.13;24.10;;;9.10;62.40;;;;;;5053098;28;20577;-64
2024/03/01 10:27:22;;;;;;;36.63;24.73;;;9.20;62.70;;;;;;5047034;28;20268;-64
2024/03/01 10:29:48;;;;;;;36.97;24.33;;;9.30;62.40;;;;;;5045180;28;20207;-64
2024/03/01 10:32:15;;;;;;;36.30;24.03;;;9.40;62.00;;;;;;5047104;28;20236;-64
2024/03/01 10:34:40;;;;;;;38.73;24.50;;;9.40;61.90;;;;;;5040001;28;20735;-63
2024/03/01 10:37:07;;;;;;;36.53;23.53;;;9.40;61.70;;;;;;5044608;28;20213;-64
2024/03/01 10:39:33;;;;;;;40.53;25.73;;;9.50;61.80;;;;;;5050366;28;20337;-64
2024/03/01 10:42:00;;;;;;;35.10;23.47;;;9.40;61.50;;;;;;5049571;28;20227;-64
2024/03/01 10:44:26;;;;;;;35.53;24.17;;;9.50;61.70;;;;;;5037829;28;20296;-63
2024/03/01 10:46:53;;;;;;;33.73;24.00;;;9.50;61.70;;;;;;5040930;28;20568;-63
2024/03/01 10:49:20;;;;;;;36.10;23.90;;;9.50;62.00;;;;;;5048370;28;20209;-63
2024/03/01 10:51:46;;;;;;;38.43;25.00;;;9.50;62.00;;;;;;5049203;28;20236;-63
2024/03/01 10:54:14;;;;;;;39.50;25.43;;;9.50;61.60;;;;;;5045048;28;20723;-63
2024/03/01 10:56:41;;;;;;;37.63;24.87;;;9.60;61.60;;;;;;5048746;28;20739;-63
2024/03/01 10:59:07;;;;;;;36.00;22.87;;;9.80;61.60;;;;;;5041938;28;20287;-63
2024/03/01 11:01:34;;;;;;;36.43;24.10;;;9.80;61.20;;;;;;5038977;28;20232;-64
2024/03/01 11:04:01;;;;;;;35.27;23.03;;;9.70;61.10;;;;;;5039324;28;20215;-61
2024/03/01 11:06:28;;;;;;;35.13;24.40;;;9.80;61.10;;;;;;5046850;28;20215;-63
2024/03/01 11:08:54;;;;;;;38.23;23.77;;;9.70;61.10;;;;;;5050965;28;20334;-64
2024/03/01 11:11:21;;;;;;;33.07;23.53;;;9.70;60.90;;;;;;5050075;28;20232;-64
2024/03/01 11:13:48;;;;;;;37.20;25.83;;;9.70;60.40;;;;;;5034530;28;20207;-62
2024/03/01 11:16:15;;;;;;;35.00;23.00;;;9.60;60.80;;;;;;5050217;28;20204;-64
2024/03/01 11:18:41;;;;;;;31.23;23.40;;;9.60;61.20;;;;;;5052407;28;20229;-64
2024/03/01 11:21:09;;;;;;;36.60;22.70;;;9.70;60.50;;;;;;5051259;28;20213;-63
2024/03/01 11:23:35;;;;;;;30.97;22.07;;;9.60;60.80;;;;;;5042962;28;20212;-63
2024/03/01 11:26:02;;;;;;;32.27;23.27;;;9.70;60.80;;;;;;5051653;28;20204;-63
2024/03/01 11:28:29;;;;;;;32.30;23.33;;;9.70;60.60;;;;;;5042940;28;20287;-64
2024/03/01 11:30:55;;;;;;;35.37;22.17;;;9.60;60.60;;;;;;5049282;28;20289;-63
2024/03/01 11:33:22;;;;;;;32.43;22.87;;;9.70;61.10;;;;;;5037655;28;20261;-64
2024/03/01 11:35:48;;;;;;;34.53;21.73;;;9.60;61.00;;;;;;5050342;28;20654;-64
2024/03/01 11:38:15;;;;;;;33.33;21.77;;;9.60;60.90;;;;;;5043002;28;20231;-63
2024/03/01 11:40:41;;;;;;;32.77;22.77;;;9.60;61.20;;;;;;5029807;28;20211;-63
2024/03/01 11:43:09;;;;;;;32.07;19.23;;;9.60;61.10;;;;;;5032111;28;20582;-64
2024/03/01 11:45:35;;;;;;;32.03;21.87;;;9.60;60.60;;;;;;5039619;28;20213;-64
2024/03/01 11:48:02;;;;;;;32.97;20.87;;;9.60;60.30;;;;;;5034762;28;20204;-64
2024/03/01 11:50:30;;;;;;;31.17;19.33;;;9.70;59.50;;;;;;5040408;28;20249;-64
2024/03/01 11:52:58;;;;;;;29.37;19.63;;;9.70;58.60;;;;;;5043342;28;20333;-62
2024/03/01 11:55:25;;;;;;;28.17;18.43;;;9.70;58.40;;;;;;5047385;28;20214;-64
2024/03/01 11:57:51;;;;;;;24.33;16.90;;;9.90;58.20;;;;;;5055256;28;20260;-64
2024/03/01 12:00:18;;;;;;;23.90;16.93;;;10.00;56.20;;;;;;5047597;28;20251;-63
2024/03/01 12:02:44;;;;;;;23.67;16.57;;;10.10;55.90;;;;;;5048694;28;20228;-64
2024/03/01 12:05:11;;;;;;;23.60;16.77;;;10.20;55.40;;;;;;5034667;28;20205;-64
2024/03/01 12:07:37;;;;;;;23.77;16.70;;;10.30;54.60;;;;;;5040667;28;20295;-64
2024/03/01 12:10:05;;;;;;;24.90;16.17;;;10.20;54.80;;;;;;5044729;28;20295;-63
2024/03/01 12:12:32;;;;;;;21.70;15.50;;;10.00;55.40;;;;;;5046916;28;20660;-64
2024/03/01 12:14:59;;;;;;;25.97;17.30;;;9.90;56.80;;;;;;5045757;28;20207;-64
2024/03/01 12:17:25;;;;;;;18.93;14.87;;;9.90;56.80;;;;;;5053135;28;20253;-64
2024/03/01 12:19:53;;;;;;;22.33;14.33;;;9.90;56.40;;;;;;5051617;28;20263;-64
2024/03/01 12:22:19;;;;;;;20.03;13.27;;;9.90;56.00;;;;;;5049883;28;20235;-64
2024/03/01 12:24:46;;;;;;;19.30;13.47;;;9.90;55.90;;;;;;5041520;28;20227;-64
2024/03/01 12:27:13;;;;;;;22.23;14.43;;;9.90;56.00;;;;;;5050203;28;20204;-63
2024/03/01 12:29:39;;;;;;;21.40;13.77;;;10.00;55.10;;;;;;5050325;28;20235;-63
2024/03/01 12:32:07;;;;;;;23.97;13.97;;;10.00;55.00;;;;;;5048336;28;20255;-65
2024/03/01 12:34:34;;;;;;;19.13;13.57;;;9.80;55.80;;;;;;5049342;28;20213;-64